createdAt,value
2023-02-22T00:02:10.996Z,100217.91
2023-02-22T00:07:14.908Z,100225.56
2023-02-22T00:12:16.359Z,100231.34
2023-02-22T00:17:20.450Z,100236.72
2023-02-22T00:22:21.891Z,100238.84
2023-02-22T00:27:23.586Z,100243.38
2023-02-22T00:32:25.030Z,100243.09
2023-02-22T00:37:26.571Z,100244.09
2023-02-22T00:42:27.985Z,100251.59
2023-02-22T00:47:30.224Z,100250.34
2023-02-22T00:52:31.737Z,100253.91
2023-02-22T00:57:36.567Z,100251.44
2023-02-22T01:02:39.682Z,100256.06
2023-02-22T01:07:41.466Z,100255.06
2023-02-22T01:12:43.208Z,100262.84
2023-02-22T01:17:44.617Z,100251.44
2023-02-22T01:22:48.538Z,100247.38
2023-02-22T01:27:51.210Z,100250.28
2023-02-22T01:32:52.975Z,100253.91
2023-02-22T01:37:54.971Z,100253.16
2023-02-22T01:43:02.309Z,100251.03
2023-02-22T01:48:14.847Z,100257.94
2023-02-22T01:53:19.029Z,100242.03
2023-02-22T01:58:22.369Z,100248.34
2023-02-22T02:03:28.308Z,100241.66
2023-02-22T02:08:59.518Z,100243.75
2023-02-22T02:14:01.219Z,100241.28
2023-02-22T02:19:05.540Z,100239.25
2023-02-22T02:24:41.834Z,100237.84
2023-02-22T02:30:20.575Z,100246.56
2023-02-22T02:35:35.776Z,100253.44
2023-02-22T02:41:08.577Z,100251.53
2023-02-22T02:46:19.067Z,100244.16
2023-02-22T02:51:22.509Z,100240.69
2023-02-22T02:56:24.570Z,100242.78
2023-02-22T03:01:44.654Z,100237.03
2023-02-22T03:06:46.046Z,100246.25
2023-02-22T03:12:05.813Z,100241.75
2023-02-22T03:17:21.031Z,100243.97
2023-02-22T03:22:37.718Z,100250.84
2023-02-22T03:27:55.564Z,100241.75
2023-02-22T03:33:03.222Z,100249.78
2023-02-22T03:38:09.561Z,100240.09
2023-02-22T03:43:16.513Z,100250.25
2023-02-22T03:48:28.650Z,100250.25
2023-02-22T03:53:32.803Z,100254.13
2023-02-22T03:58:36.539Z,100259.69
2023-02-22T04:03:37.953Z,100259.47
2023-02-22T04:08:39.675Z,100265.44
2023-02-22T04:13:41.356Z,100263.09
2023-02-22T04:18:42.973Z,100262.63
2023-02-22T04:23:44.430Z,100261.19
2023-02-22T04:28:45.867Z,100257.16
2023-02-22T04:33:47.474Z,100257.94
2023-02-22T04:38:48.959Z,100249.66
2023-02-22T04:43:50.411Z,100251.59
2023-02-22T04:48:51.878Z,100253.13
2023-02-22T04:53:53.299Z,100254.66
2023-02-22T04:58:54.722Z,100243.91
2023-02-22T05:03:56.166Z,100238.34
2023-02-22T05:08:57.727Z,100245.22
2023-02-22T05:13:59.278Z,100249.09
2023-02-22T05:19:00.784Z,100246.19
2023-02-22T05:24:02.230Z,100240.66
2023-02-22T05:29:03.704Z,100237.97
2023-02-22T05:34:05.130Z,100237.22
2023-02-22T05:39:06.627Z,100243.44
2023-02-22T05:44:08.197Z,100248.50
2023-02-22T05:49:09.667Z,100252.53
2023-02-22T05:54:11.124Z,100259.44
2023-02-22T05:59:12.591Z,100258.25
2023-02-22T06:04:14.052Z,100266.97
2023-02-22T06:09:15.685Z,100269.59
2023-02-22T06:14:17.099Z,100268.00
2023-02-22T06:19:18.519Z,100264.84
2023-02-22T06:24:21.038Z,100274.34
2023-02-22T06:29:24.185Z,100279.16
2023-02-22T06:34:25.702Z,100281.66
2023-02-22T06:39:27.221Z,100286.25
2023-02-22T06:44:28.640Z,100290.47
2023-02-22T06:49:30.050Z,100293.91
2023-02-22T06:54:31.494Z,100301.69
2023-02-22T06:59:32.904Z,100310.97
2023-02-22T07:04:35.596Z,100315.19
2023-02-22T07:09:38.477Z,100323.25
2023-02-22T07:14:39.971Z,100312.81
2023-02-22T07:19:41.406Z,100316.75
2023-02-22T07:24:43.225Z,100322.97
2023-02-22T07:29:44.681Z,100328.06
2023-02-22T07:34:46.111Z,100330.53
2023-02-22T07:39:47.567Z,100326.38
2023-02-22T07:44:49.001Z,100332.91
2023-02-22T07:49:50.517Z,100341.59
2023-02-22T07:54:52.025Z,100342.16
2023-02-22T07:59:53.682Z,100334.31
2023-02-22T08:04:55.097Z,100335.75
2023-02-22T08:09:56.501Z,100338.81
2023-02-22T08:14:57.957Z,100332.59
2023-02-22T08:19:59.479Z,100327.50
2023-02-22T08:25:00.980Z,100334.72
2023-02-22T08:30:02.447Z,100333.47
2023-02-22T08:35:04.213Z,100333.25
2023-02-22T08:40:05.989Z,100333.59
2023-02-22T08:45:07.979Z,100320.34
2023-02-22T08:50:15.615Z,100317.66
2023-02-22T08:55:20.349Z,100318.84
2023-02-22T09:00:25.271Z,100315.56
2023-02-22T09:05:26.888Z,100320.75
2023-02-22T09:10:31.242Z,100320.09
2023-02-22T09:15:35.947Z,100311.03
2023-02-22T09:20:37.515Z,100331.84
2023-02-22T09:25:40.868Z,100313.44
2023-02-22T09:30:43.113Z,100322.47
2023-02-22T09:35:46.705Z,100316.53
2023-02-22T09:40:54.691Z,100319.25
2023-02-22T09:46:13.418Z,100317.41
2023-02-22T09:51:18.431Z,100316.22
2023-02-22T09:56:21.110Z,100328.72
2023-02-22T10:01:27.016Z,100327.66
2023-02-22T10:06:29.864Z,100316.66
2023-02-22T10:11:48.773Z,100315.00
2023-02-22T10:17:04.131Z,100327.94
2023-02-22T10:22:16.989Z,100317.66
2023-02-22T10:27:34.219Z,100313.81
2023-02-22T10:32:47.955Z,100316.84
2023-02-22T10:37:59.207Z,100316.22
2023-02-22T10:43:06.559Z,100305.78
2023-02-22T10:48:18.524Z,100311.16
2023-02-22T10:53:20.123Z,100311.41
2023-02-22T10:58:21.667Z,100307.19
2023-02-22T11:03:24.229Z,100296.91
2023-02-22T11:08:32.821Z,100290.38
2023-02-22T11:13:39.413Z,100290.69
2023-02-22T11:18:40.889Z,100299.84
2023-02-22T11:23:44.981Z,100276.72
2023-02-22T11:28:56.079Z,100290.69
2023-02-22T11:33:59.009Z,100289.13
2023-02-22T11:39:01.067Z,100289.00
2023-02-22T11:44:21.113Z,100281.78
2023-02-22T11:49:36.821Z,100281.66
2023-02-22T11:55:02.026Z,100267.88
2023-02-22T12:00:24.645Z,100280.03
2023-02-22T12:05:26.408Z,100278.09
2023-02-22T12:10:38.936Z,100273.38
2023-02-22T12:15:56.246Z,100275.56
2023-02-22T12:21:02.568Z,100275.81
2023-02-22T12:26:14.523Z,100271.63
2023-02-22T12:31:25.662Z,100268.56
2023-02-22T12:36:38.651Z,100275.91
2023-02-22T12:41:48.541Z,100271.50
2023-02-22T12:46:53.442Z,100270.00
2023-02-22T12:52:09.517Z,100271.13
2023-02-22T12:57:36.139Z,100274.31
2023-02-22T13:02:45.465Z,100265.59
2023-02-22T13:08:02.479Z,100263.63
2023-02-22T13:13:29.851Z,100257.00
2023-02-22T13:18:57.421Z,100255.69
2023-02-22T13:24:38.072Z,100264.59
2023-02-22T13:29:55.314Z,100253.06
2023-02-22T13:35:14.650Z,100255.69
2023-02-22T13:40:22.095Z,100251.59
2023-02-22T13:45:53.350Z,100254.34
2023-02-22T13:51:20.657Z,100257.66
2023-02-22T13:56:26.672Z,100256.06
2023-02-22T14:01:53.460Z,100261.69
2023-02-22T14:07:04.310Z,100256.88
2023-02-22T14:12:06.005Z,100254.56
2023-02-22T14:17:24.042Z,100251.97
2023-02-22T14:22:28.677Z,100249.19
2023-02-22T14:27:40.294Z,100237.13
2023-02-22T14:32:41.802Z,100242.34
2023-02-22T14:37:49.230Z,100231.44
2023-02-22T14:43:01.908Z,100245.13
2023-02-22T14:48:27.271Z,100245.41
2023-02-22T14:53:44.224Z,100242.88
2023-02-22T14:58:49.569Z,100252.06
2023-02-22T15:04:02.130Z,100246.41
2023-02-22T15:09:28.534Z,100241.41
2023-02-22T15:14:37.513Z,100240.91
2023-02-22T15:19:41.616Z,100242.75
2023-02-22T15:24:43.130Z,100249.22
2023-02-22T15:29:45.369Z,100245.16
2023-02-22T15:34:46.881Z,100234.66
2023-02-22T15:39:48.330Z,100239.19
2023-02-22T15:44:53.750Z,100232.72
2023-02-22T15:50:18.379Z,100239.88
2023-02-22T15:55:25.618Z,100238.34
2023-02-22T16:00:37.132Z,100234.50
2023-02-22T16:05:44.187Z,100246.38
2023-02-22T16:11:04.486Z,100244.53
2023-02-22T16:16:22.452Z,100242.69
2023-02-22T16:21:23.932Z,100252.09
2023-02-22T16:26:35.516Z,100247.03
2023-02-22T16:31:39.830Z,100247.72
2023-02-22T16:36:47.368Z,100252.88
2023-02-22T16:41:50.795Z,100255.91
2023-02-22T16:46:57.700Z,100276.59
2023-02-22T16:52:01.478Z,100269.69
2023-02-22T16:57:06.224Z,100275.09
2023-02-22T17:02:13.453Z,100282.94
2023-02-22T17:07:29.831Z,100287.59
2023-02-22T17:12:32.107Z,100283.50
2023-02-22T17:17:33.555Z,100297.28
2023-02-22T17:22:34.960Z,100295.56
2023-02-22T17:27:36.376Z,100300.50
2023-02-22T17:32:37.860Z,100292.53
2023-02-22T17:37:39.300Z,100293.56
2023-02-22T17:42:43.300Z,100293.16
2023-02-22T17:47:44.832Z,100296.19
2023-02-22T17:52:46.783Z,100298.09
2023-02-22T17:57:58.212Z,100291.31
2023-02-22T18:03:10.832Z,100300.69
2023-02-22T18:08:13.266Z,100296.81
2023-02-22T18:13:19.624Z,100292.28
2023-02-22T18:18:22.205Z,100289.72
2023-02-22T18:23:27.815Z,100293.53
2023-02-22T18:28:31.178Z,100303.19
2023-02-22T18:33:32.681Z,100300.69
2023-02-22T18:38:34.135Z,100309.41
2023-02-22T18:43:36.310Z,100300.19
2023-02-22T18:48:38.951Z,100305.66
2023-02-22T18:53:46.598Z,100300.69
2023-02-22T18:58:52.388Z,100293.63
2023-02-22T19:03:54.108Z,100287.84
2023-02-22T19:08:55.530Z,100300.72
2023-02-22T19:13:58.267Z,100294.00
2023-02-22T19:18:59.783Z,100300.91
2023-02-22T19:24:01.647Z,100290.34
2023-02-22T19:29:08.424Z,100289.19
2023-02-22T19:34:12.019Z,100292.94
2023-02-22T19:39:19.174Z,100290.59
2023-02-22T19:44:20.960Z,100285.28
2023-02-22T19:54:30.263Z,100291.97
2023-02-22T19:59:31.684Z,100300.56
2023-02-22T20:04:34.143Z,100301.28
2023-02-22T20:09:43.156Z,100304.13
2023-02-22T20:14:46.285Z,100302.38
2023-02-22T20:19:48.848Z,100311.06
2023-02-22T20:24:50.377Z,100299.84
2023-02-22T20:29:51.814Z,100305.78
2023-02-22T20:34:53.241Z,100309.59
2023-02-22T20:39:54.660Z,100307.72
2023-02-22T20:45:01.630Z,100309.16
2023-02-22T20:50:05.629Z,100301.56
2023-02-22T20:55:11.412Z,100302.78
2023-02-22T21:00:14.490Z,100296.44
2023-02-22T21:05:16.110Z,100292.53
2023-02-22T21:10:21.056Z,100300.31
2023-02-22T21:15:25.882Z,100289.66
2023-02-22T21:20:27.338Z,100294.44
2023-02-22T21:25:31.504Z,100295.47
2023-02-22T21:30:33.311Z,100276.50
2023-02-22T21:35:40.392Z,100282.34
2023-02-22T21:40:42.358Z,100282.19
2023-02-22T21:45:43.947Z,100275.34
2023-02-22T21:50:45.419Z,100278.47
2023-02-22T21:55:46.856Z,100271.97
2023-02-22T22:00:48.628Z,100273.88
2023-02-22T22:05:50.057Z,100267.06
2023-02-22T22:10:55.307Z,100265.94
2023-02-22T22:16:03.367Z,100267.13
2023-02-22T22:21:10.764Z,100259.28
2023-02-22T22:26:14.293Z,100252.91
2023-02-22T22:31:18.049Z,100252.72
2023-02-22T22:36:23.739Z,100242.41
2023-02-22T22:41:28.124Z,100238.75
2023-02-22T22:46:29.754Z,100236.53
2023-02-22T22:51:33.557Z,100237.31
2023-02-22T22:56:37.794Z,100235.28
2023-02-22T23:01:44.639Z,100231.75
2023-02-22T23:06:50.720Z,100231.81
2023-02-22T23:11:57.820Z,100229.31
2023-02-22T23:17:03.625Z,100226.75
2023-02-22T23:22:07.029Z,100228.28
2023-02-22T23:27:10.681Z,100230.75
2023-02-22T23:32:14.180Z,100226.03
2023-02-22T23:37:19.186Z,100228.56
2023-02-22T23:42:23.000Z,100227.06
2023-02-22T23:47:24.761Z,100225.88
2023-02-22T23:52:29.856Z,100218.19
2023-02-22T23:57:32.815Z,100212.38
